< < Back
Terminal Aerodrome Forecast


Current Version              Previous Versions:   1  2  3  4  5  6  7  8  9  

Terminal Aerodrome Forecast

565
FTUS42 KGSP 211729
TAFGSP
TAF
KGSP 211729Z 2118/2218 07005KT P6SM SKC
     FM220000 10003KT P6SM SCT250=

Latest METAR

371
SAUS70 KWBC 222100 RRD
MTRGSP
METAR KGSP 222053Z 00000KT 10SM CLR 12/M06 A3035 RMK AO2 SLP277
T01221061 56024


USA.gov is the U.S. government's official web portal to all federal, state and local government web resources and services.